Time;durP1;ratioP1;P1;durP2;ratioP2;P2;SDS_P1;SDS_P2;PMS_P1;PMS_P2;Temp;Humidity;BMP_temperature;BMP_pressure;BME280_temperature;BME280_humidity;BME280_pressure;Samples;Min_cycle;Max_cycle;Signal;HPM_P1;HPM_P2
2023/06/01 00:04:17;;;;;;;5.35;3.05;;;11.40;99.90;;;;;;10211990;29;20214;-86
2023/06/01 00:09:19;;;;;;;8.70;3.72;;;11.50;99.90;;;;;;10211804;29;20218;-86
2023/06/01 00:14:22;;;;;;;7.28;4.85;;;11.40;99.90;;;;;;10211802;29;20699;-85
2023/06/01 00:19:26;;;;;;;9.05;3.65;;;11.40;99.90;;;;;;10193945;29;20254;-86
2023/06/01 00:24:29;;;;;;;8.00;4.18;;;11.40;99.90;;;;;;10193797;29;20259;-86
2023/06/01 00:29:32;;;;;;;9.70;4.05;;;11.30;99.90;;;;;;10210035;29;20270;-86
2023/06/01 00:34:34;;;;;;;8.43;3.78;;;11.30;99.90;;;;;;10193508;29;20663;-86
2023/06/01 00:39:37;;;;;;;8.85;3.95;;;11.50;99.90;;;;;;10210109;29;20701;-86
2023/06/01 00:44:40;;;;;;;9.75;5.03;;;11.40;99.90;;;;;;10192071;29;20315;-85
2023/06/01 00:49:43;;;;;;;10.70;4.25;;;11.40;99.90;;;;;;10208672;29;20310;-85
2023/06/01 00:54:45;;;;;;;6.63;4.43;;;11.30;99.90;;;;;;10193086;29;20258;-85
2023/06/01 00:59:48;;;;;;;9.68;4.00;;;11.30;99.90;;;;;;10209311;29;20250;-85
2023/06/01 01:04:52;;;;;;;11.63;4.72;;;11.30;99.90;;;;;;10210268;29;20668;-85
2023/06/01 01:10:22;;;;;;;7.25;4.35;;;11.20;99.90;;;;;;10176755;29;20206;-85
2023/06/01 01:15:44;;;;;;;7.20;3.42;;;11.10;99.90;;;;;;10191039;29;20730;-86
2023/06/01 01:21:00;;;;;;;5.97;4.57;;;11.10;99.90;;;;;;10208550;29;20286;-86
2023/06/01 01:26:09;;;;;;;8.85;4.90;;;11.00;99.90;;;;;;10190586;29;20238;-86
2023/06/01 01:31:15;;;;;;;12.15;4.75;;;11.10;99.90;;;;;;10179195;29;20207;-85
2023/06/01 01:36:19;;;;;;;9.02;4.53;;;10.80;99.90;;;;;;10190772;29;20258;-85
2023/06/01 01:41:22;;;;;;;8.73;4.90;;;11.00;99.90;;;;;;10174583;29;20321;-86
2023/06/01 01:46:36;;;;;;;8.50;4.00;;;10.80;99.90;;;;;;10207009;29;20648;-86
2023/06/01 01:52:10;;;;;;;7.25;4.03;;;10.80;99.90;;;;;;10188950;29;20764;-86
2023/06/01 01:57:14;;;;;;;11.90;4.80;;;10.70;99.90;;;;;;10189858;29;20266;-85
2023/06/01 02:02:17;;;;;;;12.88;5.68;;;10.70;99.90;;;;;;10196387;29;20768;-86
2023/06/01 02:07:20;;;;;;;8.38;5.22;;;10.70;99.90;;;;;;10196371;29;20699;-86
2023/06/01 02:12:23;;;;;;;8.38;3.88;;;10.70;99.90;;;;;;10198863;29;20247;-86
2023/06/01 02:17:26;;;;;;;4.18;3.78;;;10.90;99.90;;;;;;10214776;29;20796;-86
2023/06/01 02:22:29;;;;;;;5.35;3.88;;;10.70;99.90;;;;;;10213523;29;20234;-86
2023/06/01 02:27:32;;;;;;;7.15;4.55;;;10.70;99.90;;;;;;10213254;29;20290;-86
2023/06/01 02:32:34;;;;;;;11.20;5.40;;;10.40;99.90;;;;;;10214678;29;20696;-86
2023/06/01 02:37:37;;;;;;;6.65;5.22;;;10.60;99.90;;;;;;10196163;29;20270;-86
2023/06/01 02:42:40;;;;;;;6.60;4.55;;;10.50;99.90;;;;;;10196043;29;20266;-86
2023/06/01 02:47:44;;;;;;;5.85;3.85;;;10.60;99.90;;;;;;10180220;29;20251;-85
2023/06/01 02:52:48;;;;;;;8.45;5.18;;;10.70;99.90;;;;;;10195808;29;20234;-85
2023/06/01 02:57:50;;;;;;;6.47;4.63;;;10.60;99.90;;;;;;10195785;29;20334;-85
2023/06/01 03:02:53;;;;;;;7.38;4.65;;;10.70;99.90;;;;;;10195492;29;20239;-86
2023/06/01 03:07:56;;;;;;;7.55;4.55;;;10.80;99.90;;;;;;10195284;29;20254;-86
2023/06/01 03:13:01;;;;;;;8.25;4.35;;;10.80;99.90;;;;;;10194419;29;20211;-86
2023/06/01 03:18:05;;;;;;;8.10;4.80;;;10.90;99.90;;;;;;10211470;29;20739;-86
2023/06/01 03:23:08;;;;;;;8.23;4.75;;;10.70;99.90;;;;;;10195523;29;20255;-86
2023/06/01 03:28:10;;;;;;;9.85;4.13;;;10.80;99.90;;;;;;10194903;29;20619;-86
2023/06/01 03:33:15;;;;;;;12.75;5.20;;;10.90;99.90;;;;;;10194661;29;20262;-86
2023/06/01 03:38:18;;;;;;;9.40;5.13;;;10.90;99.90;;;;;;10194615;29;20652;-86
2023/06/01 03:43:21;;;;;;;11.77;4.55;;;11.20;99.90;;;;;;10171695;29;20296;-86
2023/06/01 03:48:24;;;;;;;4.50;2.75;;;11.40;99.90;;;;;;10154975;29;20307;-86
2023/06/01 03:53:26;;;;;;;5.28;3.00;;;11.60;99.90;;;;;;10153889;29;20255;-86
2023/06/01 03:58:30;;;;;;;15.82;5.70;;;11.90;99.90;;;;;;10139176;29;20290;-86
2023/06/01 04:03:33;;;;;;;11.85;5.93;;;12.20;99.90;;;;;;10137620;29;20612;-86
2023/06/01 04:08:36;;;;;;;8.40;4.03;;;12.30;99.90;;;;;;10154872;29;20254;-86
2023/06/01 04:13:39;;;;;;;6.57;4.88;;;12.50;99.90;;;;;;10153743;29;20302;-86
2023/06/01 04:18:42;;;;;;;15.88;6.20;;;12.70;99.90;;;;;;10154775;29;20263;-86
2023/06/01 04:23:50;;;;;;;5.95;3.22;;;13.10;99.90;;;;;;10152552;29;20251;-86
2023/06/01 04:28:56;;;;;;;12.82;6.68;;;13.40;99.90;;;;;;10153395;29;20287;-85
2023/06/01 04:34:01;;;;;;;10.00;5.40;;;13.90;99.90;;;;;;10152758;29;20659;-85
2023/06/01 04:39:06;;;;;;;8.73;4.80;;;14.20;99.90;;;;;;10159530;29;20313;-85
2023/06/01 04:44:08;;;;;;;5.55;4.47;;;14.40;99.90;;;;;;10176438;29;20215;-85
2023/06/01 04:49:11;;;;;;;5.55;2.47;;;14.80;99.90;;;;;;10192029;29;20646;-86
2023/06/01 04:54:18;;;;;;;4.03;2.97;;;15.20;99.90;;;;;;10190587;29;20266;-86
2023/06/01 04:59:21;;;;;;;2.75;1.90;;;15.20;99.90;;;;;;10175435;29;20238;-85
2023/06/01 05:04:24;;;;;;;3.35;1.90;;;15.80;99.90;;;;;;10190869;29;20266;-85
2023/06/01 05:09:30;;;;;;;3.58;2.35;;;16.80;99.90;;;;;;10192330;29;20250;-85
2023/06/01 05:14:34;;;;;;;6.85;1.98;;;16.60;99.90;;;;;;10191494;29;20277;-86
2023/06/01 05:19:38;;;;;;;7.53;3.47;;;16.80;99.90;;;;;;10190769;29;20757;-85
2023/06/01 05:24:41;;;;;;;7.28;2.90;;;17.10;95.80;;;;;;10175741;29;20251;-86
2023/06/01 05:29:44;;;;;;;8.48;3.40;;;17.50;93.20;;;;;;10175727;29;20211;-85
2023/06/01 05:34:47;;;;;;;10.07;3.50;;;17.70;91.30;;;;;;10174129;29;20266;-84
2023/06/01 05:39:50;;;;;;;9.55;4.20;;;17.90;90.30;;;;;;10190738;29;20708;-84
2023/06/01 05:44:53;;;;;;;6.20;3.28;;;18.30;87.90;;;;;;10189885;29;20757;-84
2023/06/01 05:49:56;;;;;;;6.70;3.30;;;18.30;85.30;;;;;;10174865;29;20262;-85
2023/06/01 05:54:59;;;;;;;5.80;2.45;;;18.30;85.60;;;;;;10189725;29;20330;-85
2023/06/01 06:00:07;;;;;;;4.78;2.22;;;18.50;84.30;;;;;;10189391;29;20263;-84
2023/06/01 06:05:17;;;;;;;7.80;2.75;;;18.60;80.60;;;;;;10196643;29;20314;-84
2023/06/01 06:10:19;;;;;;;5.32;3.00;;;18.60;80.60;;;;;;10206004;29;20243;-84
2023/06/01 06:15:22;;;;;;;6.75;2.92;;;18.70;80.40;;;;;;10207169;29;20293;-85
2023/06/01 06:20:25;;;;;;;9.63;2.92;;;19.10;79.90;;;;;;10200632;29;20236;-85
2023/06/01 06:25:27;;;;;;;12.63;4.28;;;19.20;75.40;;;;;;10205782;29;20250;-85
2023/06/01 06:30:30;;;;;;;5.20;2.45;;;19.40;75.80;;;;;;10205531;29;20624;-84
2023/06/01 06:35:33;;;;;;;5.15;2.65;;;19.70;75.40;;;;;;10188590;29;20799;-85
2023/06/01 06:40:35;;;;;;;5.55;2.60;;;20.00;75.00;;;;;;10205890;29;20258;-85
2023/06/01 06:45:38;;;;;;;3.03;2.13;;;20.20;70.80;;;;;;10190965;29;20251;-85
2023/06/01 06:50:44;;;;;;;2.53;2.28;;;20.10;72.60;;;;;;10209983;29;20361;-83
2023/06/01 06:55:46;;;;;;;2.90;2.53;;;20.40;69.30;;;;;;10196556;29;20656;-83
2023/06/01 07:00:49;;;;;;;3.00;1.75;;;20.60;68.40;;;;;;10193685;29;20310;-84
2023/06/01 07:05:52;;;;;;;8.23;3.08;;;20.90;66.30;;;;;;10194964;29;20716;-83
2023/06/01 07:10:55;;;;;;;3.45;2.38;;;20.90;62.60;;;;;;10195283;29;20637;-84
2023/06/01 07:15:58;;;;;;;6.30;2.90;;;21.10;64.00;;;;;;10195841;29;20295;-84
2023/06/01 07:21:05;;;;;;;2.65;2.35;;;21.20;61.00;;;;;;10192476;29;20235;-83
2023/06/01 07:26:07;;;;;;;3.17;2.03;;;21.40;62.00;;;;;;10184152;29;20250;-81
2023/06/01 07:31:10;;;;;;;4.18;1.83;;;21.50;55.30;;;;;;10212081;29;20250;-81
2023/06/01 07:36:14;;;;;;;5.90;2.50;;;21.50;54.30;;;;;;10195274;29;20728;-81
2023/06/01 07:41:16;;;;;;;9.85;2.03;;;21.40;53.60;;;;;;10207822;29;20270;-81
2023/06/01 07:46:19;;;;;;;13.20;2.80;;;21.50;52.80;;;;;;10191747;29;20242;-80
2023/06/01 07:51:22;;;;;;;5.18;2.40;;;21.60;50.80;;;;;;10207870;29;20266;-81
2023/06/01 07:56:26;;;;;;;11.20;2.75;;;21.50;51.10;;;;;;10173178;29;20263;-80
2023/06/01 08:01:32;;;;;;;5.65;3.35;;;21.60;50.80;;;;;;10171583;29;20291;-80
2023/06/01 08:06:35;;;;;;;11.15;3.22;;;21.60;51.40;;;;;;10180988;29;20246;-80
2023/06/01 08:11:38;;;;;;;6.13;2.17;;;21.90;52.10;;;;;;10194423;29;20274;-81
2023/06/01 08:16:41;;;;;;;8.02;2.72;;;22.30;50.30;;;;;;10199693;29;20254;-80
2023/06/01 08:21:45;;;;;;;13.20;3.20;;;22.50;47.40;;;;;;10192739;29;20970;-80
2023/06/01 08:26:48;;;;;;;10.43;2.70;;;22.60;45.10;;;;;;10192303;29;20279;-79
2023/06/01 08:31:51;;;;;;;10.40;3.10;;;22.30;43.30;;;;;;10153602;29;20243;-79
2023/06/01 08:36:54;;;;;;;6.63;1.98;;;22.30;44.60;;;;;;10158973;29;20310;-80
2023/06/01 08:42:12;;;;;;;7.18;3.13;;;22.40;48.20;;;;;;10208113;29;20990;-80
2023/06/01 08:47:15;;;;;;;5.40;2.33;;;22.70;36.40;;;;;;10189351;29;20274;-81
2023/06/01 08:52:20;;;;;;;8.27;2.13;;;22.70;43.10;;;;;;10171229;29;20657;-80
2023/06/01 08:57:23;;;;;;;4.60;1.90;;;22.70;42.50;;;;;;10186185;29;20258;-80
2023/06/01 09:02:27;;;;;;;9.63;2.65;;;22.60;39.70;;;;;;10182629;29;20973;-79
2023/06/01 09:07:31;;;;;;;9.18;2.42;;;22.60;37.10;;;;;;10189585;29;20283;-81
2023/06/01 09:12:40;;;;;;;11.73;3.38;;;22.60;37.50;;;;;;10189132;29;20763;-80
2023/06/01 09:18:05;;;;;;;10.23;3.45;;;22.40;39.70;;;;;;10190628;29;20322;-80
2023/06/01 09:23:07;;;;;;;3.00;2.60;;;22.50;38.80;;;;;;10205443;29;20234;-81
2023/06/01 09:28:10;;;;;;;8.77;2.92;;;22.50;40.20;;;;;;10202424;29;20367;-80
2023/06/01 09:33:20;;;;;;;12.48;2.30;;;22.60;41.70;;;;;;10203988;29;20251;-80
2023/06/01 09:38:25;;;;;;;4.82;1.90;;;22.80;40.70;;;;;;10204439;29;20297;-81
2023/06/01 09:43:37;;;;;;;3.78;1.52;;;22.90;41.40;;;;;;10204904;29;20266;-81
2023/06/01 09:48:42;;;;;;;6.30;2.47;;;22.90;42.20;;;;;;10205591;29;20247;-80
2023/06/01 09:53:45;;;;;;;4.68;2.45;;;22.80;36.60;;;;;;10205811;29;20286;-80
2023/06/01 09:58:49;;;;;;;6.05;2.00;;;22.90;40.10;;;;;;10188766;29;20266;-80
2023/06/01 10:03:55;;;;;;;1.73;1.25;;;23.00;39.20;;;;;;10191628;29;20239;-81
2023/06/01 10:09:00;;;;;;;7.20;1.77;;;23.20;41.00;;;;;;10195733;29;20337;-82
2023/06/01 10:14:02;;;;;;;2.15;1.63;;;23.20;39.60;;;;;;10198270;29;20696;-82
2023/06/01 10:19:06;;;;;;;3.90;2.25;;;23.00;40.20;;;;;;10187260;29;20270;-81
2023/06/01 10:24:09;;;;;;;3.28;1.80;;;23.10;43.40;;;;;;10210025;29;20294;-81
2023/06/01 10:29:12;;;;;;;6.82;3.33;;;23.10;38.40;;;;;;10212350;29;20302;-80
2023/06/01 10:34:15;;;;;;;5.60;2.63;;;23.00;34.40;;;;;;10179638;29;20317;-81
2023/06/01 10:39:29;;;;;;;6.35;2.85;;;23.10;39.80;;;;;;10206081;29;20732;-80
2023/06/01 10:44:44;;;;;;;2.38;1.48;;;23.00;34.60;;;;;;10206806;29;20670;-81
2023/06/01 10:49:50;;;;;;;2.33;1.40;;;23.20;41.00;;;;;;10192873;29;20249;-81
2023/06/01 10:55:07;;;;;;;8.60;3.15;;;23.30;40.80;;;;;;10197407;29;20871;-80
2023/06/01 11:00:14;;;;;;;4.40;2.28;;;23.20;36.40;;;;;;10202531;29;20266;-79
2023/06/01 11:05:46;;;;;;;8.07;4.55;;;23.40;41.00;;;;;;10193796;29;20246;-80
2023/06/01 11:10:59;;;;;;;10.65;3.75;;;23.00;35.30;;;;;;10211020;29;20246;-80
2023/06/01 11:16:18;;;;;;;7.72;3.83;;;23.00;39.90;;;;;;10192990;29;20787;-81
2023/06/01 11:21:23;;;;;;;7.88;4.65;;;23.00;40.20;;;;;;10189975;29;20654;-80
2023/06/01 11:26:31;;;;;;;9.50;3.00;;;22.80;43.70;;;;;;10210435;29;20783;-80
2023/06/01 11:31:43;;;;;;;8.75;5.35;;;22.80;43.30;;;;;;10210645;29;20751;-79
2023/06/01 11:36:48;;;;;;;11.95;6.10;;;22.60;45.50;;;;;;10210200;29;20284;-79
2023/06/01 11:42:04;;;;;;;4.30;3.55;;;22.70;45.20;;;;;;10207653;29;20737;-82
2023/06/01 11:47:08;;;;;;;7.55;5.00;;;22.50;48.30;;;;;;10174631;29;20732;-81
2023/06/01 11:52:12;;;;;;;12.27;5.85;;;22.30;43.90;;;;;;10190323;29;20291;-82
2023/06/01 11:57:15;;;;;;;15.57;5.13;;;22.20;41.60;;;;;;10190617;29;20277;-81
2023/06/01 12:02:26;;;;;;;3.65;2.47;;;22.00;41.00;;;;;;10175702;29;20660;-80
2023/06/01 12:07:29;;;;;;;6.72;4.60;;;22.30;40.80;;;;;;10205459;29;20242;-81
2023/06/01 12:12:33;;;;;;;10.65;5.68;;;22.30;38.90;;;;;;10183890;29;20299;-82
2023/06/01 12:17:56;;;;;;;5.72;3.78;;;22.40;35.80;;;;;;10172582;29;20255;-83
2023/06/01 12:23:13;;;;;;;3.95;2.72;;;22.30;36.20;;;;;;10183112;29;20242;-84
2023/06/01 12:28:19;;;;;;;8.88;3.78;;;22.40;40.90;;;;;;10192192;29;20305;-83
2023/06/01 12:33:36;;;;;;;3.60;3.25;;;22.40;36.30;;;;;;10209453;29;20246;-83
2023/06/01 12:38:50;;;;;;;6.47;3.05;;;22.60;38.80;;;;;;10191179;29;20700;-83
2023/06/01 12:43:53;;;;;;;10.52;4.65;;;22.60;41.00;;;;;;10190689;29;20239;-82
2023/06/01 12:49:13;;;;;;;5.85;3.80;;;22.70;35.10;;;;;;10190880;29;20648;-82
2023/06/01 12:54:17;;;;;;;4.47;4.07;;;22.60;35.30;;;;;;10200395;29;20653;-83
2023/06/01 12:59:20;;;;;;;11.07;5.80;;;22.80;36.20;;;;;;10203140;29;20331;-84
2023/06/01 13:04:24;;;;;;;9.75;6.05;;;22.50;32.50;;;;;;10204526;29;20242;-83
2023/06/01 13:09:26;;;;;;;4.35;3.75;;;22.70;35.60;;;;;;10189761;29;20652;-83
2023/06/01 13:14:32;;;;;;;5.80;4.05;;;22.70;36.40;;;;;;10206563;29;20310;-83
2023/06/01 13:19:42;;;;;;;8.48;6.22;;;22.80;38.10;;;;;;10163018;29;20271;-83
2023/06/01 13:24:46;;;;;;;8.98;5.20;;;22.70;33.60;;;;;;10192947;29;20288;-83
2023/06/01 13:30:07;;;;;;;13.50;5.93;;;22.60;34.50;;;;;;10192181;29;20250;-84
2023/06/01 13:35:12;;;;;;;6.55;2.92;;;22.60;35.20;;;;;;10204653;29;20686;-84
2023/06/01 13:40:18;;;;;;;6.05;3.88;;;22.60;38.60;;;;;;10182987;29;20458;-83
2023/06/01 13:45:21;;;;;;;8.30;4.03;;;22.60;38.40;;;;;;10177766;29;20889;-83
2023/06/01 13:50:24;;;;;;;8.75;4.03;;;22.70;38.00;;;;;;10196867;29;20712;-83
2023/06/01 13:55:28;;;;;;;7.40;4.00;;;22.70;37.50;;;;;;10202435;29;20313;-83
2023/06/01 14:00:30;;;;;;;9.27;3.80;;;22.60;38.10;;;;;;10204443;29;20314;-82
2023/06/01 14:05:33;;;;;;;8.77;5.03;;;22.60;36.60;;;;;;10199108;29;20298;-83
2023/06/01 14:10:53;;;;;;;11.30;5.30;;;22.50;34.80;;;;;;10198917;29;20250;-82
2023/06/01 14:15:55;;;;;;;7.05;4.57;;;22.40;36.10;;;;;;10181494;29;20302;-82
2023/06/01 14:20:59;;;;;;;12.20;5.68;;;22.50;36.70;;;;;;10200815;29;20298;-82
2023/06/01 14:26:02;;;;;;;8.90;6.22;;;22.50;34.70;;;;;;10190789;29;20720;-83
2023/06/01 14:31:05;;;;;;;15.50;6.28;;;22.60;33.90;;;;;;10204075;29;20302;-83
2023/06/01 14:36:09;;;;;;;9.48;4.63;;;22.50;34.60;;;;;;10186197;29;20246;-82
2023/06/01 14:41:11;;;;;;;12.40;7.90;;;22.50;37.00;;;;;;10204164;29;20314;-82
2023/06/01 14:46:14;;;;;;;8.57;7.07;;;22.50;31.20;;;;;;10202696;29;20243;-83
2023/06/01 14:51:17;;;;;;;9.10;6.85;;;22.30;28.70;;;;;;10205764;29;20250;-80
2023/06/01 14:56:22;;;;;;;7.82;5.78;;;22.20;31.50;;;;;;10187394;29;20676;-82
2023/06/01 15:01:24;;;;;;;7.68;5.15;;;22.10;29.50;;;;;;10205011;29;20259;-83
2023/06/01 15:06:27;;;;;;;9.70;6.50;;;22.20;33.60;;;;;;10187520;29;20687;-85
2023/06/01 15:11:30;;;;;;;16.38;6.70;;;22.30;28.90;;;;;;10200562;29;20314;-83
2023/06/01 15:16:33;;;;;;;6.63;5.93;;;22.20;30.90;;;;;;10192329;29;20247;-82
2023/06/01 15:21:39;;;;;;;10.05;6.25;;;22.10;28.70;;;;;;10206994;29;20302;-82
2023/06/01 15:26:42;;;;;;;7.50;5.00;;;21.90;28.80;;;;;;10193497;29;20246;-83
2023/06/01 15:31:44;;;;;;;10.98;5.70;;;21.90;27.70;;;;;;10210315;29;20702;-83
2023/06/01 15:36:47;;;;;;;12.32;6.28;;;22.10;31.00;;;;;;10210777;29;20267;-83
2023/06/01 15:41:49;;;;;;;8.27;5.07;;;21.80;26.20;;;;;;10193346;29;20259;-84
2023/06/01 15:47:00;;;;;;;7.53;5.50;;;21.80;31.10;;;;;;10209267;29;20708;-83
2023/06/01 15:52:03;;;;;;;17.20;5.25;;;21.90;29.50;;;;;;10206298;29;20306;-83
2023/06/01 15:57:07;;;;;;;8.25;5.53;;;21.60;27.30;;;;;;10205829;29;20262;-82
2023/06/01 16:02:10;;;;;;;7.53;5.47;;;21.60;30.30;;;;;;10193233;29;20211;-83
2023/06/01 16:07:13;;;;;;;7.28;4.78;;;21.50;30.10;;;;;;10209730;29;20700;-82
2023/06/01 16:12:15;;;;;;;8.10;5.70;;;21.70;32.30;;;;;;10198033;29;20246;-83
2023/06/01 16:17:18;;;;;;;8.00;5.18;;;21.60;29.60;;;;;;10209970;29;20247;-83
2023/06/01 16:22:20;;;;;;;5.72;4.43;;;21.60;28.40;;;;;;10210174;29;20246;-82
2023/06/01 16:27:23;;;;;;;8.82;4.60;;;21.60;31.10;;;;;;10208205;29;20246;-82
2023/06/01 16:32:26;;;;;;;7.85;4.22;;;21.70;30.70;;;;;;10193583;29;20243;-83
2023/06/01 16:37:29;;;;;;;6.90;4.57;;;21.90;27.80;;;;;;9508251;29;10000412;-81
2023/06/01 16:42:32;;;;;;;8.50;4.65;;;21.80;33.00;;;;;;10197207;29;20764;-82
2023/06/01 16:47:34;;;;;;;9.02;4.63;;;21.90;31.40;;;;;;10208516;29;20618;-82
2023/06/01 16:52:37;;;;;;;5.53;3.83;;;21.90;30.90;;;;;;10199817;29;20302;-84
2023/06/01 16:57:40;;;;;;;7.30;3.67;;;21.70;28.60;;;;;;9861454;29;9999649;-83
2023/06/01 17:02:45;;;;;;;6.60;4.20;;;21.60;31.20;;;;;;10181448;29;20250;-81
2023/06/01 17:07:48;;;;;;;9.25;4.68;;;21.40;32.50;;;;;;10187039;29;20699;-81
2023/06/01 17:12:50;;;;;;;8.27;3.63;;;21.40;32.10;;;;;;10188491;29;20748;-81
2023/06/01 17:17:53;;;;;;;8.05;4.70;;;21.20;28.30;;;;;;10204192;29;20266;-82
2023/06/01 17:22:55;;;;;;;9.63;4.63;;;21.00;29.40;;;;;;10204097;29;20246;-81
2023/06/01 17:27:58;;;;;;;5.97;4.00;;;20.90;32.50;;;;;;10198373;29;20250;-82
2023/06/01 17:33:01;;;;;;;11.52;3.95;;;20.80;30.30;;;;;;10206232;29;20274;-81
2023/06/01 17:38:04;;;;;;;8.38;4.10;;;20.50;29.70;;;;;;10207264;29;20266;-82
2023/06/01 17:43:06;;;;;;;6.50;3.70;;;20.60;35.90;;;;;;10205243;29;20263;-82
2023/06/01 17:48:09;;;;;;;6.07;3.97;;;20.40;29.90;;;;;;10205334;29;20568;-81
2023/06/01 17:53:13;;;;;;;4.53;3.53;;;20.20;34.00;;;;;;10205430;29;20288;-81
2023/06/01 17:58:36;;;;;;;5.40;4.13;;;20.00;34.60;;;;;;10205251;29;20262;-82
2023/06/01 18:03:38;;;;;;;5.93;4.15;;;20.00;33.90;;;;;;10197019;29;20247;-82
2023/06/01 18:08:41;;;;;;;5.90;3.28;;;19.90;36.50;;;;;;10205764;29;20295;-82
2023/06/01 18:13:43;;;;;;;7.03;3.72;;;19.80;35.30;;;;;;10200194;29;20246;-81
2023/06/01 18:18:46;;;;;;;16.55;4.13;;;19.50;41.80;;;;;;10205671;29;20294;-82
2023/06/01 18:23:50;;;;;;;6.82;4.35;;;19.30;43.10;;;;;;10205797;29;20261;-81
2023/06/01 18:28:52;;;;;;;8.40;4.80;;;19.20;45.00;;;;;;10203942;29;20242;-82
2023/06/01 18:33:55;;;;;;;5.70;3.65;;;18.90;46.40;;;;;;10205113;29;20239;-82
2023/06/01 18:38:57;;;;;;;9.25;4.30;;;18.70;48.50;;;;;;10206652;29;20709;-81
2023/06/01 18:44:00;;;;;;;6.68;3.30;;;18.60;52.10;;;;;;10193926;29;20234;-81
2023/06/01 18:49:04;;;;;;;8.52;4.32;;;18.40;48.40;;;;;;10210650;29;20276;-82
2023/06/01 18:54:07;;;;;;;9.65;4.45;;;;;;;;;;10211289;29;20282;-82
2023/06/01 18:59:10;;;;;;;5.97;3.45;;;18.00;52.80;;;;;;10212502;29;20267;-82
2023/06/01 19:04:13;;;;;;;5.80;2.92;;;17.90;52.00;;;;;;10188218;29;20239;-82
2023/06/01 19:09:17;;;;;;;9.80;3.53;;;17.80;58.90;;;;;;10179978;29;20305;-82
2023/06/01 19:14:19;;;;;;;4.57;3.35;;;17.60;59.60;;;;;;9866874;29;10000198;-81
2023/06/01 19:19:24;;;;;;;4.20;3.33;;;17.50;63.40;;;;;;10191257;29;20290;-81
2023/06/01 19:24:27;;;;;;;5.95;3.55;;;17.30;65.70;;;;;;10208608;29;20309;-82
2023/06/01 19:29:36;;;;;;;8.13;3.85;;;17.20;66.80;;;;;;10191370;29;20247;-82
2023/06/01 19:34:39;;;;;;;10.00;3.55;;;16.80;65.90;;;;;;10208423;29;20640;-82
2023/06/01 19:39:44;;;;;;;4.90;3.33;;;16.40;69.10;;;;;;10207904;29;20274;-81
2023/06/01 19:44:46;;;;;;;7.35;3.30;;;15.90;76.70;;;;;;10197766;29;20243;-81
2023/06/01 19:49:50;;;;;;;7.30;3.28;;;15.60;81.70;;;;;;10207913;29;20267;-82
2023/06/01 19:54:55;;;;;;;9.93;3.65;;;15.40;87.90;;;;;;10206693;29;20282;-81
2023/06/01 19:59:58;;;;;;;6.60;3.60;;;15.30;90.90;;;;;;10189899;29;20732;-82
2023/06/01 20:05:05;;;;;;;4.63;3.03;;;15.30;94.00;;;;;;10189724;29;20338;-82
2023/06/01 20:10:21;;;;;;;5.72;3.97;;;15.40;94.30;;;;;;10206732;29;20251;-81
2023/06/01 20:15:32;;;;;;;11.90;4.20;;;15.30;94.40;;;;;;10214409;29;20673;-81
2023/06/01 20:20:39;;;;;;;6.78;3.72;;;15.10;95.40;;;;;;10205886;29;20306;-81
2023/06/01 20:25:43;;;;;;;8.85;4.20;;;14.90;97.90;;;;;;10207435;29;20250;-81
2023/06/01 20:31:05;;;;;;;8.18;4.25;;;15.00;98.20;;;;;;10205657;29;20765;-81
2023/06/01 20:36:12;;;;;;;6.15;4.35;;;15.20;98.40;;;;;;10206916;29;20297;-80
2023/06/01 20:41:21;;;;;;;12.93;5.60;;;15.30;98.70;;;;;;10208465;29;20271;-81
2023/06/01 20:46:28;;;;;;;6.97;3.65;;;15.10;97.20;;;;;;10192440;29;20258;-80
2023/06/01 20:52:02;;;;;;;8.50;4.72;;;14.90;98.80;;;;;;10191056;29;20607;-81
2023/06/01 20:57:05;;;;;;;4.85;3.88;;;14.70;98.80;;;;;;10185684;29;20234;-81
2023/06/01 21:02:08;;;;;;;69.85;9.00;;;14.60;99.40;;;;;;10194262;29;20270;-81
2023/06/01 21:07:12;;;;;;;18.60;4.00;;;;;;;;;;10204428;29;20271;-80
2023/06/01 21:12:14;;;;;;;18.88;5.60;;;13.70;99.80;;;;;;10176754;29;20329;-80
2023/06/01 21:17:18;;;;;;;15.63;4.43;;;13.50;99.90;;;;;;10181992;29;20250;-85
2023/06/01 21:22:20;;;;;;;17.33;5.85;;;13.40;99.90;;;;;;10199129;29;20739;-83
2023/06/01 21:27:23;;;;;;;10.73;3.92;;;13.40;99.90;;;;;;10189823;29;20239;-81
2023/06/01 21:32:25;;;;;;;7.63;3.72;;;13.30;99.90;;;;;;10172816;29;20238;-80
2023/06/01 21:37:28;;;;;;;6.45;3.38;;;13.30;99.90;;;;;;10172821;29;20976;-80
2023/06/01 21:42:31;;;;;;;13.27;3.53;;;13.00;99.90;;;;;;10162557;29;20363;-80
2023/06/01 21:47:34;;;;;;;5.88;3.42;;;;;;;;;;10174772;29;20247;-80
2023/06/01 21:52:36;;;;;;;6.65;3.42;;;12.80;99.90;;;;;;10190251;29;20638;-80
2023/06/01 21:57:40;;;;;;;6.32;3.67;;;12.80;99.90;;;;;;10204731;29;20247;-80
2023/06/01 22:02:43;;;;;;;10.55;3.28;;;12.80;99.90;;;;;;10206922;29;20311;-81
2023/06/01 22:07:46;;;;;;;5.80;2.83;;;12.90;99.90;;;;;;10207203;29;20343;-80
2023/06/01 22:12:48;;;;;;;7.80;4.93;;;13.00;99.90;;;;;;10192794;29;20501;-80
2023/06/01 22:17:52;;;;;;;5.80;3.80;;;13.30;99.90;;;;;;10171088;29;20689;-80
2023/06/01 22:22:54;;;;;;;8.48;4.35;;;13.40;99.90;;;;;;10195398;29;20262;-80
2023/06/01 22:27:57;;;;;;;4.10;3.03;;;13.30;99.90;;;;;;10214066;29;20322;-81
2023/06/01 22:33:00;;;;;;;8.18;3.95;;;13.10;99.90;;;;;;10197469;29;20219;-80
2023/06/01 22:38:03;;;;;;;5.30;3.20;;;13.20;99.90;;;;;;10213416;29;20238;-80
2023/06/01 22:43:06;;;;;;;3.92;3.40;;;13.40;99.90;;;;;;10198543;29;20263;-80
2023/06/01 22:48:08;;;;;;;8.00;3.08;;;13.40;99.90;;;;;;10207630;29;20679;-80
2023/06/01 22:53:11;;;;;;;4.90;3.50;;;13.40;99.90;;;;;;10179718;29;20246;-80
2023/06/01 22:58:14;;;;;;;7.32;3.92;;;13.40;99.90;;;;;;10212891;29;20314;-80
2023/06/01 23:03:16;;;;;;;7.68;3.50;;;12.90;99.90;;;;;;10195391;29;20266;-80
2023/06/01 23:08:19;;;;;;;4.90;3.15;;;12.90;99.90;;;;;;10212191;29;20250;-80
2023/06/01 23:13:27;;;;;;;9.55;3.97;;;12.90;99.90;;;;;;10201513;29;20247;-80
2023/06/01 23:18:30;;;;;;;7.28;3.15;;;12.90;99.90;;;;;;10199753;29;20247;-80
2023/06/01 23:23:33;;;;;;;9.23;3.80;;;12.90;99.90;;;;;;10212659;29;20238;-80
2023/06/01 23:28:51;;;;;;;8.32;4.03;;;13.10;99.90;;;;;;10209974;29;20247;-80
2023/06/01 23:33:55;;;;;;;5.72;4.15;;;13.00;99.90;;;;;;10212454;29;20238;-80
2023/06/01 23:39:01;;;;;;;6.78;3.83;;;12.80;99.90;;;;;;10211825;29;20270;-80
2023/06/01 23:44:05;;;;;;;7.65;4.38;;;12.40;99.90;;;;;;10193296;29;20306;-80
2023/06/01 23:49:09;;;;;;;14.82;4.70;;;;;;;;;;10194000;29;20258;-80
2023/06/01 23:54:12;;;;;;;6.63;4.03;;;;;;;;;;10211248;29;20215;-80
2023/06/01 23:59:15;;;;;;;7.13;4.50;;;;;;;;;;10211308;29;20287;-80
